• Join FlightAware (Why Join?)
  • Login
  • US Flag 
10:11AM EDT


 

Airport Tracker/Info


-or-


 

Live Flight TrackerFlight Track Log ✈ EJA930 ✈ 26-Jun-2013 ✈ KLCI - KILG

Flight Track Log - Related Links

Times and Time Zones

All times are in EDT time to prevent confusion due to time zone crossing. See the EJA930 flight status page for this flight to view local times or setup timezone preferences in your user account.

Time Position Orientation Groundspeed Altitude Reporting Facility
EDT Latitude Longitude Course Direction KTS MPH feet Rate Location/Type
08:31AM 43.5667 -71.4500 221° Southwest 227 261 1,700  Level KA90
08:32AM 43.5364 -71.4864 221° Southwest 248 285 3,800 3,600 Climbing Boston Center
08:33AM 43.4839 -71.4414 148° Southeast 282 325 7,400 3,660 Climbing Boston Center
08:34AM 43.4122 -71.3597 140° Southeast 293 337 11,200 2,460 Climbing Boston Center
08:35AM 43.3406 -71.2783 140° Southeast 319 367 12,400 1,200 Climbing Boston Center
08:36AM 43.2689 -71.1939 139° Southeast 359 413 13,700 1,380 Climbing Boston Center
08:37AM 43.1761 -71.0906 141° Southeast 393 452 15,200 1,500 Climbing Boston Center
08:38AM 43.0894 -70.9931 141° Southeast 398 458 16,800 1,260 Climbing Boston Center
08:39AM 43.0114 -70.9294 149° Southeast 403 464 17,800 1,500 Climbing Boston Center
08:40AM 42.8617 -70.9444 184° South 377 434 20,200 1,680 Climbing Boston Center
08:41AM 42.7558 -70.9950 199° South 382 440 21,600 1,260 Climbing Boston Center
08:42AM 42.6547 -71.0569 204° Southwest 397 457 22,800 1,320 Climbing Boston Center
08:43AM 42.5639 -71.1461 216° Southwest 408 470 24,300 1,200 Climbing Boston Center
08:44AM 42.4692 -71.2356 215° Southwest 413 475 25,300 1,020 Climbing Boston Center
08:45AM 42.3742 -71.3244 215° Southwest 420 483 26,400 900 Climbing Boston Center
08:46AM 42.2769 -71.4186 216° Southwest 426 490 27,400 1,020 Climbing Boston Center
08:47AM 42.1531 -71.5328 214° Southwest 442 509 28,700 1,020 Climbing Boston Center
08:48AM 42.0556 -71.6181 213° Southwest 456 525 29,500 960 Climbing Boston Center
08:49AM 41.9519 -71.7144 215° Southwest 461 531 30,700 1,320 Climbing Boston Center
08:50AM 41.8442 -71.8103 214° Southwest 461 531 32,200 1,500 Climbing Boston Center
08:51AM 41.7406 -71.9086 215° Southwest 466 536 33,700 900 Climbing Boston Center
08:52AM 41.6306 -72.0125 215° Southwest 471 542 34,000 120 Climbing Boston Center
08:53AM 41.5058 -72.1214 213° Southwest 484 557 34,000  Level Boston Center
08:54AM 41.3894 -72.2297 215° Southwest 504 580 34,000  Level Boston Center
08:55AM 41.2833 -72.3214 213° Southwest 510 587 34,000  Level Boston Center
08:56AM 41.1542 -72.4456 216° Southwest 515 593 34,000 -120 Level Boston Center
08:57AM 41.0333 -72.5503 213° Southwest 515 593 33,800 -1,080 Descending Boston Center
08:58AM 40.9183 -72.6572 215° Southwest 515 593 31,900 -2,280 Descending Boston Center
08:59AM 40.7972 -72.7636 214° Southwest 515 593 29,300 -2,760 Descending Boston Center
09:00AM 40.6783 -72.8669 213° Southwest 520 598 26,400 -1,920 Descending Boston Center
09:01AM 40.5675 -72.9647 214° Southwest 508 585 25,500 -1,620 Descending Boston Center
09:03AM 40.3947 -73.1147 213° Southwest 480 552 22,000 -1,320 Descending New York Center
09:04AM 40.2928 -73.2064 214° Southwest 463 533 22,000  Level New York Center
09:05AM 40.1931 -73.2981 215° Southwest 452 520 22,000 -240 Level New York Center
09:06AM 40.0911 -73.3864 214° Southwest 447 514 21,600 -660 Descending New York Center
09:07AM 39.9869 -73.4747 213° Southwest 447 514 20,700 -840 Descending New York Center
09:08AM 39.8867 -73.5708 216° Southwest 447 514 20,000 -360 Descending New York Center
09:09AM 39.8131 -73.6869 230° Southwest 428 493 20,000 -840 Level New York Center
09:10AM 39.6989 -73.8681 231° Southwest 432 497 18,100 -1,740 Descending Washington Center
09:11AM 39.6278 -73.9883 233° Southwest 427 491 15,900 -2,100 Descending Washington Center
09:12AM 39.5564 -74.1031 231° Southwest 422 486 14,000 -960 Descending Washington Center
09:13AM 39.5308 -74.2381 256° West 382 440 14,000  Level Washington Center
09:14AM 39.5303 -74.3753 270° West 381 438 14,000 -960 Level Washington Center
09:15AM 39.5314 -74.5100 271° West 384 442 12,200 -1,440 Descending Washington Center
09:16AM 39.5325 -74.6231 271° West 343 395 11,200 -1,500 Descending Washington Center
09:17AM 39.5353 -74.7197 272° West 284 327 9,200 -840 Descending Washington Center
09:19AM 39.5333 -74.8667 269° West 264 304 9,000 -660 Descending Philadelphia TRACON
09:20AM 39.5500 -74.9667 282° West 261 300 7,600 -1,500 Descending Philadelphia TRACON
09:21AM 39.5667 -75.0667 282° West 258 297 6,000 -1,440 Descending Philadelphia TRACON
09:22AM 39.5667 -75.1500 270° West 244 281 4,700 -960 Descending Philadelphia TRACON
09:23AM 39.5500 -75.2500 258° West 249 287 4,000 -360 Descending Philadelphia TRACON
09:24AM 39.5667 -75.3167 288° West 229 264 4,000 -480 Level Philadelphia TRACON
09:25AM 39.6000 -75.3833 303° West 204 235 3,100 -900 Descending Philadelphia TRACON
09:26AM 39.6333 -75.4333 311° West 202 232 2,200 -840 Descending Philadelphia TRACON
09:27AM 39.6667 -75.5000 303° West 186 214 1,400 -720 Descending Philadelphia TRACON
09:28AM 39.6833 -75.5667 288° West 167 192 800 -600 Descending Philadelphia TRACON